Time,TemperatureF,DewpointF,PressureIn,WindDirection,WindDirectionDegrees,WindSpeedMPH,WindSpeedGustMPH,Humidity,HourlyPrecipIn,Conditions,Clouds,dailyrainin,SoftwareType,DateUTC
2013-01-26 00:14:00,30.0,27.5,26.43,WNW,293,18.1,20.5,90,0.00,,,0.00,WUHU216HW,2013-01-26 05:14:00,
2013-01-26 00:19:00,30.0,27.5,26.43,WNW,293,22.1,22.1,90,0.00,,,0.00,WUHU216HW,2013-01-26 05:19:00,
2013-01-26 00:24:00,30.0,27.5,26.44,WNW,293,20.3,22.1,90,0.00,,,0.00,WUHU216HW,2013-01-26 05:24:00,
2013-01-26 00:29:00,30.0,27.5,26.44,WNW,293,14.3,22.1,90,0.00,,,0.00,WUHU216HW,2013-01-26 05:29:00,
2013-01-26 00:34:00,30.0,27.5,26.44,NW,315,17.4,19.9,90,0.00,,,0.00,WUHU216HW,2013-01-26 05:34:00,
2013-01-26 00:39:00,30.0,27.5,26.44,NW,315,15.2,17.4,90,0.00,,,0.00,WUHU216HW,2013-01-26 05:39:00,
2013-01-26 00:44:00,30.0,27.5,26.44,WNW,293,18.3,18.3,90,0.00,,,0.00,WUHU216HW,2013-01-26 05:44:00,
2013-01-26 00:49:00,29.8,27.3,26.44,NW,315,15.4,18.3,90,0.00,,,0.00,WUHU216HW,2013-01-26 05:49:00,
2013-01-26 00:54:00,29.8,27.3,26.44,NNW,338,17.4,18.3,90,0.00,,,0.00,WUHU216HW,2013-01-26 05:54:00,
2013-01-26 00:59:00,29.6,27.1,26.44,NNW,338,14.7,17.4,90,0.00,,,0.00,WUHU216HW,2013-01-26 05:59:00,
2013-01-26 01:04:00,29.4,26.9,26.44,NW,315,17.8,27.9,90,0.00,,,0.00,WUHU216HW,2013-01-26 06:04:00,
2013-01-26 01:09:00,29.4,26.9,26.44,WNW,293,16.7,27.9,90,0.00,,,0.00,WUHU216HW,2013-01-26 06:09:00,
2013-01-26 01:14:00,29.3,26.7,26.43,WNW,293,16.7,24.3,90,0.00,,,0.00,WUHU216HW,2013-01-26 06:14:00,
2013-01-26 01:19:00,29.1,26.6,26.45,NW,315,12.7,24.3,90,0.00,,,0.00,WUHU216HW,2013-01-26 06:19:00,
2013-01-26 01:24:00,29.1,26.6,26.45,NW,315,4.0,18.3,90,0.00,,,0.00,WUHU216HW,2013-01-26 06:24:00,
2013-01-26 01:30:00,28.9,26.4,26.45,WNW,293,18.5,21.0,90,0.00,,,0.00,WUHU216HW,2013-01-26 06:30:00,
2013-01-26 01:35:00,28.7,26.2,26.45,NW,315,10.5,21.0,90,0.00,,,0.00,WUHU216HW,2013-01-26 06:35:00,
2013-01-26 01:40:00,28.5,26.0,26.46,WNW,293,8.0,19.6,90,0.00,,,0.00,WUHU216HW,2013-01-26 06:40:00,
2013-01-26 01:45:00,28.5,26.0,26.46,WNW,293,6.7,11.4,90,0.00,,,0.00,WUHU216HW,2013-01-26 06:45:00,
2013-01-26 01:50:00,28.5,26.0,26.45,NW,315,9.6,15.8,90,0.00,,,0.00,WUHU216HW,2013-01-26 06:50:00,
2013-01-26 01:55:00,28.4,25.8,26.45,West,270,20.1,20.1,90,0.00,,,0.00,WUHU216HW,2013-01-26 06:55:00,
2013-01-26 02:00:00,28.2,25.7,26.45,WNW,293,10.5,20.1,90,0.00,,,0.00,WUHU216HW,2013-01-26 07:00:00,
2013-01-26 02:05:00,28.2,25.7,26.45,WNW,293,14.3,14.3,90,0.00,,,0.00,WUHU216HW,2013-01-26 07:05:00,
2013-01-26 02:10:00,28.2,25.7,26.46,NW,315,12.5,21.6,90,0.00,,,0.00,WUHU216HW,2013-01-26 07:10:00,
2013-01-26 02:15:00,28.0,25.5,26.46,NNW,338,15.6,21.6,90,0.00,,,0.00,WUHU216HW,2013-01-26 07:15:00,
2013-01-26 02:20:00,28.0,25.5,26.46,NW,315,15.8,26.1,90,0.00,,,0.00,WUHU216HW,2013-01-26 07:20:00,
2013-01-26 02:25:00,28.0,25.5,26.46,NNW,338,19.4,26.1,90,0.00,,,0.00,WUHU216HW,2013-01-26 07:25:00,
2013-01-26 02:30:00,28.0,25.5,26.46,NW,315,11.6,19.4,90,0.00,,,0.00,WUHU216HW,2013-01-26 07:30:00,
2013-01-26 02:35:00,27.6,25.1,26.46,NW,315,17.2,17.2,90,0.00,,,0.00,WUHU216HW,2013-01-26 07:35:00,
2013-01-26 02:40:00,27.6,25.1,26.46,NNW,338,15.2,18.7,90,0.00,,,0.00,WUHU216HW,2013-01-26 07:40:00,
2013-01-26 02:46:00,27.6,25.1,26.46,WNW,293,16.1,18.7,90,0.00,,,0.00,WUHU216HW,2013-01-26 07:46:00,
2013-01-26 02:51:00,27.6,25.1,26.46,NW,315,21.0,21.0,90,0.00,,,0.00,WUHU216HW,2013-01-26 07:51:00,
2013-01-26 02:56:00,27.5,24.9,26.45,NW,315,20.3,21.0,90,0.00,,,0.00,WUHU216HW,2013-01-26 07:56:00,
2013-01-26 03:01:00,27.5,24.9,26.46,NNW,338,14.0,23.0,90,0.00,,,0.00,WUHU216HW,2013-01-26 08:01:00,
2013-01-26 03:06:00,27.3,24.8,26.45,NW,315,13.4,23.0,90,0.00,,,0.00,WUHU216HW,2013-01-26 08:06:00,
2013-01-26 03:11:00,27.3,24.8,26.45,NW,315,19.0,19.0,90,0.00,,,0.00,WUHU216HW,2013-01-26 08:11:00,
2013-01-26 03:16:00,27.1,24.3,26.45,NNW,338,20.3,20.3,89,0.00,,,0.00,WUHU216HW,2013-01-26 08:16:00,
2013-01-26 03:21:00,27.1,24.3,26.45,NW,315,11.6,20.3,89,0.00,,,0.00,WUHU216HW,2013-01-26 08:21:00,
2013-01-26 03:26:00,27.1,24.3,26.45,NW,315,18.3,20.3,89,0.00,,,0.00,WUHU216HW,2013-01-26 08:26:00,
2013-01-26 03:31:00,27.1,24.3,26.45,NW,315,12.7,18.3,89,0.00,,,0.00,WUHU216HW,2013-01-26 08:31:00,
2013-01-26 03:36:00,27.1,24.3,26.45,West,270,20.3,21.0,89,0.00,,,0.00,WUHU216HW,2013-01-26 08:36:00,
2013-01-26 03:41:00,27.1,24.3,26.45,NW,315,11.1,21.0,89,0.00,,,0.00,WUHU216HW,2013-01-26 08:41:00,
2013-01-26 03:46:00,27.1,24.3,26.45,NNW,338,14.9,20.3,89,0.00,,,0.00,WUHU216HW,2013-01-26 08:46:00,
2013-01-26 03:51:00,26.9,24.1,26.45,NW,315,25.5,25.5,89,0.00,,,0.00,WUHU216HW,2013-01-26 08:51:00,
2013-01-26 03:56:00,26.9,24.1,26.45,NNW,338,17.0,25.5,89,0.00,,,0.00,WUHU216HW,2013-01-26 08:56:00,
2013-01-26 04:01:00,26.7,23.9,26.44,NNW,338,13.6,19.9,89,0.00,,,0.00,WUHU216HW,2013-01-26 09:01:00,
2013-01-26 04:06:00,26.7,23.9,26.45,NNW,338,12.3,21.2,89,0.00,,,0.00,WUHU216HW,2013-01-26 09:06:00,
2013-01-26 04:11:00,26.6,23.7,26.44,WNW,293,19.0,21.2,89,0.00,,,0.00,WUHU216HW,2013-01-26 09:11:00,
2013-01-26 04:16:00,26.6,23.7,26.45,WNW,293,13.6,19.0,89,0.00,,,0.00,WUHU216HW,2013-01-26 09:16:00,
2013-01-26 04:21:00,26.4,23.6,26.45,NNW,338,17.8,19.0,89,0.00,,,0.00,WUHU216HW,2013-01-26 09:21:00,
2013-01-26 04:27:00,26.4,23.6,26.45,NW,315,14.5,18.3,89,0.00,,,0.00,WUHU216HW,2013-01-26 09:27:00,
2013-01-26 04:32:00,26.4,23.6,26.45,NW,315,15.2,17.8,89,0.00,,,0.00,WUHU216HW,2013-01-26 09:32:00,
2013-01-26 04:37:00,26.4,23.6,26.45,WNW,293,12.5,26.1,89,0.00,,,0.00,WUHU216HW,2013-01-26 09:37:00,
2013-01-26 04:42:00,26.4,23.6,26.44,WNW,293,19.0,26.1,89,0.00,,,0.00,WUHU216HW,2013-01-26 09:42:00,
2013-01-26 04:47:00,26.4,23.6,26.45,NW,315,15.8,19.0,89,0.00,,,0.00,WUHU216HW,2013-01-26 09:47:00,
2013-01-26 04:52:00,26.2,23.4,26.45,WNW,293,15.4,19.0,89,0.00,,,0.00,WUHU216HW,2013-01-26 09:52:00,
2013-01-26 04:57:00,26.2,23.4,26.45,WNW,293,18.1,18.1,89,0.00,,,0.00,WUHU216HW,2013-01-26 09:57:00,
2013-01-26 05:02:00,26.2,23.4,26.45,WNW,293,21.4,21.4,89,0.00,,,0.00,WUHU216HW,2013-01-26 10:02:00,
2013-01-26 05:07:00,26.2,23.1,26.45,NW,315,20.3,21.4,88,0.00,,,0.00,WUHU216HW,2013-01-26 10:07:00,
2013-01-26 05:12:00,26.2,23.1,26.45,NW,315,16.7,21.2,88,0.00,,,0.00,WUHU216HW,2013-01-26 10:12:00,
2013-01-26 05:17:00,26.2,23.1,26.46,WNW,293,13.8,20.3,88,0.00,,,0.00,WUHU216HW,2013-01-26 10:17:00,
2013-01-26 05:22:00,26.0,22.9,26.46,WNW,293,15.6,18.5,88,0.00,,,0.00,WUHU216HW,2013-01-26 10:22:00,
2013-01-26 05:27:00,26.0,22.9,26.46,WNW,293,12.3,18.5,88,0.00,,,0.00,WUHU216HW,2013-01-26 10:27:00,
2013-01-26 05:32:00,25.8,22.9,26.46,WNW,293,8.7,17.8,88,0.00,,,0.00,WUHU216HW,2013-01-26 10:32:00,
2013-01-26 05:37:00,25.8,22.7,26.46,NNW,338,15.6,17.8,88,0.00,,,0.00,WUHU216HW,2013-01-26 10:37:00,
2013-01-26 05:42:00,25.8,22.7,26.47,WNW,293,16.1,16.1,88,0.00,,,0.00,WUHU216HW,2013-01-26 10:42:00,
2013-01-26 05:47:00,25.8,22.7,26.47,NW,315,12.7,21.2,88,0.00,,,0.00,WUHU216HW,2013-01-26 10:47:00,
2013-01-26 05:52:00,25.8,22.7,26.46,NW,315,17.2,21.2,88,0.00,,,0.00,WUHU216HW,2013-01-26 10:52:00,
2013-01-26 05:57:00,25.8,22.7,26.47,NW,315,12.5,18.1,88,0.00,,,0.00,WUHU216HW,2013-01-26 10:57:00,
2013-01-26 06:02:00,25.8,22.7,26.47,NW,315,16.3,17.2,88,0.00,,,0.00,WUHU216HW,2013-01-26 11:02:00,
2013-01-26 06:07:00,25.8,22.7,26.47,WNW,293,7.3,17.2,88,0.00,,,0.00,WUHU216HW,2013-01-26 11:07:00,
2013-01-26 06:12:00,25.8,22.7,26.48,West,270,12.0,17.2,88,0.00,,,0.00,WUHU216HW,2013-01-26 11:12:00,
2013-01-26 06:17:00,25.7,22.6,26.48,NW,315,10.9,12.0,88,0.00,,,0.00,WUHU216HW,2013-01-26 11:17:00,
2013-01-26 06:22:00,25.7,22.6,26.48,West,270,10.7,11.6,88,0.00,,,0.00,WUHU216HW,2013-01-26 11:22:00,
2013-01-26 06:28:00,25.7,22.6,26.48,WNW,293,15.8,15.8,88,0.00,,,0.00,WUHU216HW,2013-01-26 11:28:00,
2013-01-26 06:33:00,25.7,22.6,26.49,WNW,293,6.7,15.8,88,0.00,,,0.00,WUHU216HW,2013-01-26 11:33:00,
2013-01-26 06:38:00,25.7,22.6,26.48,West,270,8.0,14.3,88,0.00,,,0.00,WUHU216HW,2013-01-26 11:38:00,
2013-01-26 06:43:00,25.7,22.6,26.49,WNW,293,11.4,11.4,88,0.00,,,0.00,WUHU216HW,2013-01-26 11:43:00,
2013-01-26 06:48:00,25.5,22.4,26.49,WNW,293,10.2,11.4,88,0.00,,,0.00,WUHU216HW,2013-01-26 11:48:00,
2013-01-26 06:53:00,25.5,22.4,26.49,WNW,293,8.2,17.8,88,0.00,,,0.00,WUHU216HW,2013-01-26 11:53:00,
2013-01-26 06:58:00,25.5,22.4,26.49,WNW,293,6.9,17.8,88,0.00,,,0.00,WUHU216HW,2013-01-26 11:58:00,
2013-01-26 07:03:00,25.5,22.1,26.50,West,270,10.2,11.1,87,0.00,,,0.00,WUHU216HW,2013-01-26 12:03:00,
2013-01-26 07:08:00,25.5,22.1,26.51,WNW,293,11.1,11.4,87,0.00,,,0.00,WUHU216HW,2013-01-26 12:08:00,
2013-01-26 07:13:00,25.5,22.1,26.51,NNW,338,9.1,14.0,87,0.00,,,0.00,WUHU216HW,2013-01-26 12:13:00,
2013-01-26 07:18:00,25.5,22.1,26.51,WNW,293,9.3,14.0,87,0.00,,,0.00,WUHU216HW,2013-01-26 12:18:00,
2013-01-26 07:23:00,25.5,22.1,26.52,WNW,293,9.1,12.0,87,0.00,,,0.00,WUHU216HW,2013-01-26 12:23:00,
2013-01-26 07:28:00,25.3,21.9,26.51,NW,315,17.0,17.0,87,0.00,,,0.00,WUHU216HW,2013-01-26 12:28:00,
2013-01-26 07:33:00,25.3,21.9,26.51,West,270,7.3,17.0,87,0.00,,,0.00,WUHU216HW,2013-01-26 12:33:00,
2013-01-26 07:38:00,25.3,21.9,26.51,West,270,6.7,17.0,87,0.00,,,0.00,WUHU216HW,2013-01-26 12:38:00,
2013-01-26 07:43:00,25.1,21.8,26.51,WNW,293,11.6,19.2,87,0.00,,,0.00,WUHU216HW,2013-01-26 12:43:00,
2013-01-26 07:48:00,25.1,21.8,26.52,West,270,8.2,19.2,87,0.00,,,0.00,WUHU216HW,2013-01-26 12:48:00,
2013-01-26 07:54:00,25.1,21.8,26.52,WNW,293,9.6,11.8,87,0.00,,,0.00,WUHU216HW,2013-01-26 12:54:00,
2013-01-26 07:59:00,24.9,21.6,26.52,WNW,293,15.6,15.6,87,0.00,,,0.00,WUHU216HW,2013-01-26 12:59:00,
2013-01-26 08:04:00,24.9,21.3,26.52,NW,315,12.3,16.5,86,0.00,,,0.00,WUHU216HW,2013-01-26 13:04:00,
2013-01-26 08:09:00,24.9,21.3,26.52,NW,315,9.3,20.8,86,0.00,,,0.00,WUHU216HW,2013-01-26 13:09:00,
2013-01-26 08:14:00,24.9,21.3,26.52,WNW,293,12.0,20.8,86,0.00,,,0.00,WUHU216HW,2013-01-26 13:14:00,
2013-01-26 08:19:00,24.8,21.2,26.53,WNW,293,14.5,17.2,86,0.00,,,0.00,WUHU216HW,2013-01-26 13:19:00,
2013-01-26 08:24:00,24.6,21.0,26.52,NW,315,14.9,16.5,86,0.00,,,0.00,WUHU216HW,2013-01-26 13:24:00,
2013-01-26 08:30:00,24.6,21.0,26.52,WNW,293,13.8,15.2,86,0.00,,,0.00,WUHU216HW,2013-01-26 13:30:00,
2013-01-26 08:35:00,24.6,21.0,26.53,WNW,293,17.2,17.2,86,0.00,,,0.00,WUHU216HW,2013-01-26 13:35:00,
2013-01-26 08:40:00,24.6,21.0,26.52,NW,315,18.1,25.9,86,0.00,,,0.00,WUHU216HW,2013-01-26 13:40:00,
2013-01-26 08:45:00,24.6,21.0,26.52,WNW,293,19.2,25.9,86,0.00,,,0.00,WUHU216HW,2013-01-26 13:45:00,
2013-01-26 08:50:00,24.6,21.0,26.53,NW,315,16.3,23.9,86,0.00,,,0.00,WUHU216HW,2013-01-26 13:50:00,
2013-01-26 08:55:00,24.6,20.7,26.53,West,270,15.8,23.9,85,0.00,,,0.00,WUHU216HW,2013-01-26 13:55:00,
2013-01-26 09:00:00,24.6,20.7,26.53,West,270,14.3,21.9,85,0.00,,,0.00,WUHU216HW,2013-01-26 14:00:00,
2013-01-26 09:05:00,24.6,20.7,26.53,NW,315,17.6,21.9,85,0.00,,,0.00,WUHU216HW,2013-01-26 14:05:00,
2013-01-26 09:10:00,24.6,20.7,26.53,NW,315,25.7,25.7,85,0.00,,,0.00,WUHU216HW,2013-01-26 14:10:00,
2013-01-26 09:15:00,24.6,20.7,26.53,WNW,293,15.4,25.7,85,0.00,,,0.00,WUHU216HW,2013-01-26 14:15:00,
2013-01-26 09:20:00,24.6,20.7,26.53,WNW,293,20.3,23.7,85,0.00,,,0.00,WUHU216HW,2013-01-26 14:20:00,
2013-01-26 09:25:00,24.9,21.0,26.53,WNW,293,21.0,21.0,85,0.00,,,0.00,WUHU216HW,2013-01-26 14:25:00,
2013-01-26 09:30:00,24.9,21.0,26.53,West,270,16.1,29.9,85,0.00,,,0.00,WUHU216HW,2013-01-26 14:30:00,
2013-01-26 09:36:00,24.9,20.8,26.53,West,270,13.1,29.9,84,0.00,,,0.00,WUHU216HW,2013-01-26 14:36:00,
2013-01-26 09:41:00,24.9,20.8,26.53,NW,315,17.0,27.7,84,0.00,,,0.00,WUHU216HW,2013-01-26 14:41:00,
2013-01-26 09:46:00,25.1,20.9,26.53,West,270,17.8,19.6,84,0.00,,,0.00,WUHU216HW,2013-01-26 14:46:00,
2013-01-26 09:51:00,25.1,20.9,26.55,West,270,12.9,22.5,84,0.00,,,0.00,WUHU216HW,2013-01-26 14:51:00,
2013-01-26 09:56:00,25.3,21.1,26.55,NW,315,21.0,22.5,84,0.00,,,0.00,WUHU216HW,2013-01-26 14:56:00,
2013-01-26 10:01:00,25.3,21.1,26.55,WNW,293,13.8,21.0,84,0.00,,,0.00,WUHU216HW,2013-01-26 15:01:00,
2013-01-26 10:06:00,25.5,21.3,26.56,NW,315,17.8,17.8,84,0.00,,,0.00,WUHU216HW,2013-01-26 15:06:00,
2013-01-26 10:11:00,25.5,21.3,26.56,NW,315,12.0,20.8,84,0.00,,,0.00,WUHU216HW,2013-01-26 15:11:00,
2013-01-26 10:16:00,25.5,21.3,26.57,NW,315,12.9,20.8,84,0.00,,,0.00,WUHU216HW,2013-01-26 15:16:00,
2013-01-26 10:21:00,25.7,21.5,26.57,NW,315,13.4,23.9,84,0.00,,,0.00,WUHU216HW,2013-01-26 15:21:00,
2013-01-26 10:26:00,25.8,21.6,26.57,WNW,293,12.3,23.9,84,0.00,,,0.00,WUHU216HW,2013-01-26 15:26:00,
2013-01-26 10:31:00,26.2,22.0,26.57,NW,315,14.9,18.3,84,0.00,,,0.00,WUHU216HW,2013-01-26 15:31:00,
2013-01-26 10:36:00,26.2,22.0,26.57,NNW,338,10.5,18.3,84,0.00,,,0.00,WUHU216HW,2013-01-26 15:36:00,
2013-01-26 10:42:00,26.4,21.8,26.58,NW,315,17.0,17.0,83,0.00,,,0.00,WUHU216HW,2013-01-26 15:42:00,
2013-01-26 10:47:00,26.4,21.8,26.57,NW,315,15.6,23.2,83,0.00,,,0.00,WUHU216HW,2013-01-26 15:47:00,
2013-01-26 10:52:00,26.4,21.8,26.58,NW,315,16.7,23.2,83,0.00,,,0.00,WUHU216HW,2013-01-26 15:52:00,
2013-01-26 10:57:00,26.4,21.8,26.58,WNW,293,12.9,16.7,83,0.00,,,0.00,WUHU216HW,2013-01-26 15:57:00,
2013-01-26 11:02:00,26.7,21.9,26.58,NW,315,13.8,15.6,82,0.00,,,0.00,WUHU216HW,2013-01-26 16:02:00,
2013-01-26 11:07:00,27.1,22.3,26.59,West,270,14.9,21.9,82,0.00,,,0.00,WUHU216HW,2013-01-26 16:07:00,
2013-01-26 11:12:00,27.1,22.3,26.59,WNW,293,14.9,21.9,82,0.00,,,0.00,WUHU216HW,2013-01-26 16:12:00,
2013-01-26 11:17:00,27.5,22.6,26.58,WNW,293,14.7,17.8,82,0.00,,,0.00,WUHU216HW,2013-01-26 16:17:00,
2013-01-26 11:22:00,27.6,22.8,26.59,NW,315,10.2,17.8,82,0.00,,,0.00,WUHU216HW,2013-01-26 16:22:00,
2013-01-26 11:27:00,27.6,22.5,26.58,WNW,293,17.0,17.0,81,0.00,,,0.00,WUHU216HW,2013-01-26 16:27:00,
2013-01-26 11:32:00,27.6,22.5,26.59,NW,315,12.0,17.0,81,0.00,,,0.00,WUHU216HW,2013-01-26 16:32:00,
2013-01-26 11:37:00,27.6,22.5,26.59,NW,315,12.0,17.4,81,0.00,,,0.00,WUHU216HW,2013-01-26 16:37:00,
2013-01-26 11:42:00,28.0,22.9,26.58,NNW,338,13.8,17.4,81,0.00,,,0.00,WUHU216HW,2013-01-26 16:42:00,
2013-01-26 11:47:00,28.0,22.6,26.58,WNW,293,14.9,22.3,80,0.00,,,0.00,WUHU216HW,2013-01-26 16:47:00,
2013-01-26 11:52:00,28.2,22.8,26.58,NW,315,15.4,22.3,80,0.00,,,0.00,WUHU216HW,2013-01-26 16:52:00,
2013-01-26 11:57:00,28.2,22.8,26.58,NW,315,17.6,17.6,80,0.00,,,0.00,WUHU216HW,2013-01-26 16:57:00,
2013-01-26 12:03:00,28.2,22.8,26.58,NW,315,20.1,20.1,80,0.00,,,0.00,WUHU216HW,2013-01-26 17:03:00,
2013-01-26 12:08:00,28.2,22.6,26.58,NW,315,19.2,20.1,80,0.00,,,0.00,WUHU216HW,2013-01-26 17:08:00,
2013-01-26 12:13:00,28.5,22.8,26.58,NNW,338,15.6,19.2,79,0.00,,,0.00,WUHU216HW,2013-01-26 17:13:00,
2013-01-26 12:18:00,28.5,22.8,26.58,NNW,338,9.6,20.3,79,0.00,,,0.00,WUHU216HW,2013-01-26 17:18:00,
2013-01-26 12:23:00,28.5,23.0,26.58,NW,315,15.8,21.4,79,0.00,,,0.00,WUHU216HW,2013-01-26 17:23:00,
2013-01-26 12:28:00,28.7,23.0,26.58,WNW,293,10.2,21.4,79,0.00,,,0.00,WUHU216HW,2013-01-26 17:28:00,
2013-01-26 12:33:00,28.9,23.2,26.58,NW,315,15.6,16.7,79,0.00,,,0.00,WUHU216HW,2013-01-26 17:33:00,
2013-01-26 12:38:00,29.1,23.0,26.57,NW,315,12.7,15.6,78,0.00,,,0.00,WUHU216HW,2013-01-26 17:38:00,
2013-01-26 12:43:00,29.1,23.0,26.57,North,0,15.4,15.6,78,0.00,,,0.00,WUHU216HW,2013-01-26 17:43:00,
2013-01-26 12:48:00,29.3,23.2,26.57,NW,315,13.8,17.4,78,0.00,,,0.00,WUHU216HW,2013-01-26 17:48:00,
2013-01-26 12:53:00,29.4,23.1,26.57,NNW,338,14.5,18.5,77,0.00,,,0.00,WUHU216HW,2013-01-26 17:53:00,
2013-01-26 12:58:00,29.6,23.2,26.57,West,270,8.9,18.5,77,0.00,,,0.00,WUHU216HW,2013-01-26 17:58:00,
2013-01-26 13:03:00,29.8,23.7,26.57,NW,315,11.8,17.8,78,0.00,,,0.00,WUHU216HW,2013-01-26 18:03:00,
2013-01-26 13:08:00,30.0,23.6,26.57,WNW,293,14.7,17.8,77,0.00,,,0.00,WUHU216HW,2013-01-26 18:08:00,
2013-01-26 13:13:00,30.0,23.6,26.58,NW,315,6.9,14.7,77,0.00,,,0.00,WUHU216HW,2013-01-26 18:13:00,
2013-01-26 13:18:00,30.0,23.6,26.58,NW,315,19.6,19.6,77,0.00,,,0.00,WUHU216HW,2013-01-26 18:18:00,
2013-01-26 13:23:00,30.2,23.8,26.57,WNW,293,18.1,19.6,77,0.00,,,0.00,WUHU216HW,2013-01-26 18:23:00,
2013-01-26 13:28:00,30.0,23.6,26.58,NW,315,11.8,19.6,77,0.00,,,0.00,WUHU216HW,2013-01-26 18:28:00,
2013-01-26 13:33:00,30.0,23.6,26.58,NW,315,13.1,18.1,77,0.00,,,0.00,WUHU216HW,2013-01-26 18:33:00,
2013-01-26 13:38:00,30.0,23.6,26.58,NW,315,12.3,15.4,77,0.00,,,0.00,WUHU216HW,2013-01-26 18:38:00,
2013-01-26 13:43:00,30.2,23.8,26.58,NW,315,8.7,13.1,77,0.00,,,0.00,WUHU216HW,2013-01-26 18:43:00,
2013-01-26 13:49:00,30.2,23.8,26.58,NW,315,16.5,17.2,77,0.00,,,0.00,WUHU216HW,2013-01-26 18:49:00,
2013-01-26 13:54:00,30.3,24.0,26.57,WNW,293,6.7,17.2,77,0.00,,,0.00,WUHU216HW,2013-01-26 18:54:00,
2013-01-26 13:59:00,30.3,24.0,26.57,NW,315,10.9,16.5,77,0.00,,,0.00,WUHU216HW,2013-01-26 18:59:00,
2013-01-26 14:04:00,30.5,24.1,26.57,NW,315,10.5,11.6,77,0.00,,,0.00,WUHU216HW,2013-01-26 19:04:00,
2013-01-26 14:09:00,30.7,24.3,26.57,West,270,11.1,11.6,77,0.00,,,0.00,WUHU216HW,2013-01-26 19:09:00,
2013-01-26 14:14:00,30.9,24.5,26.57,WNW,293,10.9,12.5,77,0.00,,,0.00,WUHU216HW,2013-01-26 19:14:00,
2013-01-26 14:19:00,31.1,24.7,26.58,NNW,338,15.4,15.4,77,0.00,,,0.00,WUHU216HW,2013-01-26 19:19:00,
2013-01-26 14:24:00,31.1,24.4,26.58,WNW,293,11.6,15.4,76,0.00,,,0.00,WUHU216HW,2013-01-26 19:24:00,
2013-01-26 14:29:00,31.1,24.4,26.57,NNW,338,9.6,13.8,76,0.00,,,0.00,WUHU216HW,2013-01-26 19:29:00,
2013-01-26 14:34:00,31.1,24.4,26.58,North,0,10.5,13.8,76,0.00,,,0.00,WUHU216HW,2013-01-26 19:34:00,
2013-01-26 14:39:00,31.2,24.5,26.58,NNW,338,9.6,10.5,76,0.00,,,0.00,WUHU216HW,2013-01-26 19:39:00,
2013-01-26 14:44:00,31.2,24.5,26.58,NNW,338,9.3,9.8,76,0.00,,,0.00,WUHU216HW,2013-01-26 19:44:00,
2013-01-26 14:50:00,31.6,24.9,26.58,WNW,293,15.2,15.2,76,0.00,,,0.00,WUHU216HW,2013-01-26 19:50:00,
2013-01-26 14:55:00,31.6,24.9,26.58,WNW,293,12.7,15.2,76,0.00,,,0.00,WUHU216HW,2013-01-26 19:55:00,
2013-01-26 15:00:00,31.4,24.7,26.58,WNW,293,9.1,12.7,76,0.00,,,0.00,WUHU216HW,2013-01-26 20:00:00,
2013-01-26 15:05:00,31.6,24.9,26.58,NNW,338,8.5,12.7,76,0.00,,,0.00,WUHU216HW,2013-01-26 20:05:00,
2013-01-26 15:10:00,31.6,24.9,26.58,WNW,293,14.7,14.7,76,0.00,,,0.00,WUHU216HW,2013-01-26 20:10:00,
2013-01-26 15:15:00,31.6,24.9,26.58,NW,315,9.1,14.7,76,0.00,,,0.00,WUHU216HW,2013-01-26 20:15:00,
2013-01-26 15:20:00,31.6,24.9,26.59,WNW,293,12.5,14.7,76,0.00,,,0.00,WUHU216HW,2013-01-26 20:20:00,
2013-01-26 15:25:00,31.6,24.9,26.58,NW,315,13.6,13.6,76,0.00,,,0.00,WUHU216HW,2013-01-26 20:25:00,
2013-01-26 15:30:00,31.6,24.9,26.59,NW,315,10.9,13.6,76,0.00,,,0.00,WUHU216HW,2013-01-26 20:30:00,
2013-01-26 15:36:00,31.6,24.9,26.59,NW,315,8.5,13.6,76,0.00,,,0.00,WUHU216HW,2013-01-26 20:36:00,
2013-01-26 15:41:00,31.6,24.9,26.59,NW,315,9.8,11.4,76,0.00,,,0.00,WUHU216HW,2013-01-26 20:41:00,
2013-01-26 15:46:00,31.6,24.9,26.60,NW,315,12.7,12.7,76,0.00,,,0.00,WUHU216HW,2013-01-26 20:46:00,
2013-01-26 15:51:00,31.6,24.9,26.60,WNW,293,15.4,15.4,76,0.00,,,0.00,WUHU216HW,2013-01-26 20:51:00,
2013-01-26 15:56:00,31.2,24.5,26.60,WNW,293,14.9,15.4,76,0.00,,,0.00,WUHU216HW,2013-01-26 20:56:00,
2013-01-26 16:01:00,31.2,24.2,26.60,West,270,10.5,14.9,75,0.00,,,0.00,WUHU216HW,2013-01-26 21:01:00,
2013-01-26 16:06:00,31.2,24.2,26.60,NW,315,15.6,15.8,75,0.00,,,0.00,WUHU216HW,2013-01-26 21:06:00,
2013-01-26 16:11:00,30.9,24.0,26.60,NW,315,10.2,15.8,75,0.00,,,0.00,WUHU216HW,2013-01-26 21:11:00,
2013-01-26 16:16:00,30.9,23.9,26.61,NW,315,12.0,15.6,75,0.00,,,0.00,WUHU216HW,2013-01-26 21:16:00,
2013-01-26 16:21:00,30.9,23.9,26.60,WNW,293,13.8,13.8,75,0.00,,,0.00,WUHU216HW,2013-01-26 21:21:00,
2013-01-26 16:26:00,30.7,23.7,26.61,NNW,338,11.4,13.8,75,0.00,,,0.00,WUHU216HW,2013-01-26 21:26:00,
2013-01-26 16:31:00,30.7,24.0,26.60,WNW,293,9.3,13.4,76,0.00,,,0.00,WUHU216HW,2013-01-26 21:31:00,
2013-01-26 16:36:00,30.5,23.8,26.60,NNW,338,12.0,17.0,76,0.00,,,0.00,WUHU216HW,2013-01-26 21:36:00,
2013-01-26 16:41:00,30.3,23.6,26.60,NW,315,21.0,21.0,76,0.00,,,0.00,WUHU216HW,2013-01-26 21:41:00,
2013-01-26 16:46:00,30.0,23.3,26.61,NNW,338,15.2,21.0,76,0.00,,,0.00,WUHU216HW,2013-01-26 21:46:00,
2013-01-26 16:51:00,30.0,23.3,26.61,NNW,338,10.0,21.0,76,0.00,,,0.00,WUHU216HW,2013-01-26 21:51:00,
2013-01-26 16:57:00,29.8,23.1,26.62,NW,315,17.2,17.2,76,0.00,,,0.00,WUHU216HW,2013-01-26 21:57:00,
2013-01-26 17:02:00,29.4,23.1,26.62,NW,315,11.1,17.2,77,0.00,,,0.00,WUHU216HW,2013-01-26 22:02:00,
2013-01-26 17:07:00,29.3,22.9,26.63,NNW,338,14.3,17.2,77,0.00,,,0.00,WUHU216HW,2013-01-26 22:07:00,
2013-01-26 17:12:00,29.1,22.7,26.63,NNW,338,13.6,14.3,77,0.00,,,0.00,WUHU216HW,2013-01-26 22:12:00,
2013-01-26 17:17:00,28.9,22.6,26.63,NW,315,11.8,14.3,77,0.00,,,0.00,WUHU216HW,2013-01-26 22:17:00,
2013-01-26 17:22:00,28.7,22.7,26.63,NW,315,10.2,13.6,78,0.00,,,0.00,WUHU216HW,2013-01-26 22:22:00,
2013-01-26 17:27:00,28.5,22.5,26.63,NW,315,11.1,12.5,78,0.00,,,0.00,WUHU216HW,2013-01-26 22:27:00,
2013-01-26 17:32:00,28.2,22.2,26.63,WNW,293,7.8,11.1,78,0.00,,,0.00,WUHU216HW,2013-01-26 22:32:00,
2013-01-26 17:37:00,28.2,22.2,26.63,NNW,338,12.0,13.1,78,0.00,,,0.00,WUHU216HW,2013-01-26 22:37:00,
2013-01-26 17:42:00,28.0,22.3,26.64,NNW,338,10.5,13.1,79,0.00,,,0.00,WUHU216HW,2013-01-26 22:42:00,
2013-01-26 17:47:00,28.0,22.3,26.64,NW,315,7.3,12.0,79,0.00,,,0.00,WUHU216HW,2013-01-26 22:47:00,
2013-01-26 17:52:00,27.6,21.9,26.64,NNW,338,10.7,10.7,79,0.00,,,0.00,WUHU216HW,2013-01-26 22:52:00,
2013-01-26 17:58:00,27.6,21.9,26.64,WNW,293,12.5,12.5,79,0.00,,,0.00,WUHU216HW,2013-01-26 22:58:00,
2013-01-26 18:03:00,27.5,21.7,26.63,NNW,338,9.3,12.5,79,0.00,,,0.00,WUHU216HW,2013-01-26 23:03:00,
2013-01-26 18:08:00,27.3,21.6,26.64,WNW,293,8.5,12.5,79,0.00,,,0.00,WUHU216HW,2013-01-26 23:08:00,
2013-01-26 18:13:00,27.1,21.7,26.64,NW,315,8.7,9.6,80,0.00,,,0.00,WUHU216HW,2013-01-26 23:13:00,
2013-01-26 18:18:00,27.1,21.7,26.64,NW,315,14.9,14.9,80,0.00,,,0.00,WUHU216HW,2013-01-26 23:18:00,
2013-01-26 18:23:00,27.1,21.7,26.64,NW,315,8.7,15.6,80,0.00,,,0.00,WUHU216HW,2013-01-26 23:23:00,
2013-01-26 18:28:00,27.1,21.7,26.64,NNW,338,12.7,15.6,80,0.00,,,0.00,WUHU216HW,2013-01-26 23:28:00,
2013-01-26 18:33:00,26.9,21.5,26.64,NW,315,13.8,13.8,80,0.00,,,0.00,WUHU216HW,2013-01-26 23:33:00,
2013-01-26 18:38:00,26.9,21.8,26.64,NW,315,13.4,13.8,81,0.00,,,0.00,WUHU216HW,2013-01-26 23:38:00,
2013-01-26 18:43:00,26.9,21.8,26.64,NW,315,10.2,13.8,81,0.00,,,0.00,WUHU216HW,2013-01-26 23:43:00,
2013-01-26 18:48:00,26.9,21.8,26.64,NW,315,11.6,11.6,81,0.00,,,0.00,WUHU216HW,2013-01-26 23:48:00,
2013-01-26 18:53:00,26.7,21.6,26.64,NW,315,10.5,11.6,81,0.00,,,0.00,WUHU216HW,2013-01-26 23:53:00,
2013-01-26 18:58:00,26.7,21.6,26.64,NNW,338,12.3,12.3,81,0.00,,,0.00,WUHU216HW,2013-01-26 23:58:00,
2013-01-26 19:04:00,26.6,21.4,26.64,NW,315,7.8,15.6,81,0.00,,,0.00,WUHU216HW,2013-01-27 00:04:00,
2013-01-26 19:09:00,26.6,21.7,26.64,NW,315,8.5,15.6,82,0.00,,,0.00,WUHU216HW,2013-01-27 00:09:00,
2013-01-26 19:14:00,26.4,21.5,26.64,NNW,338,9.1,14.9,82,0.00,,,0.00,WUHU216HW,2013-01-27 00:14:00,
2013-01-26 19:19:00,26.4,21.5,26.65,NW,315,10.0,14.9,82,0.00,,,0.00,WUHU216HW,2013-01-27 00:19:00,
2013-01-26 19:24:00,26.4,21.5,26.65,NW,315,7.8,14.3,82,0.00,,,0.00,WUHU216HW,2013-01-27 00:24:00,
2013-01-26 19:29:00,26.4,21.5,26.65,NNW,338,10.0,14.3,82,0.00,,,0.00,WUHU216HW,2013-01-27 00:29:00,
2013-01-26 19:35:00,26.4,21.5,26.66,NW,315,9.6,10.2,82,0.00,,,0.00,WUHU216HW,2013-01-27 00:35:00,
2013-01-26 19:40:00,26.4,21.5,26.66,NW,315,8.2,10.2,82,0.00,,,0.00,WUHU216HW,2013-01-27 00:40:00,
2013-01-26 19:45:00,26.4,21.5,26.65,NW,315,10.9,10.9,82,0.00,,,0.00,WUHU216HW,2013-01-27 00:45:00,
2013-01-26 19:50:00,26.4,21.5,26.66,WNW,293,11.4,11.4,82,0.00,,,0.00,WUHU216HW,2013-01-27 00:50:00,
2013-01-26 19:55:00,26.6,21.7,26.66,WNW,293,7.1,11.4,82,0.00,,,0.00,WUHU216HW,2013-01-27 00:55:00,
2013-01-26 20:00:00,26.4,21.5,26.66,NW,315,12.5,12.5,82,0.00,,,0.00,WUHU216HW,2013-01-27 01:00:00,
2013-01-26 20:05:00,26.4,21.8,26.66,NW,315,9.6,13.4,83,0.00,,,0.00,WUHU216HW,2013-01-27 01:05:00,
2013-01-26 20:10:00,26.4,21.8,26.66,NW,315,10.7,13.4,83,0.00,,,0.00,WUHU216HW,2013-01-27 01:10:00,
2013-01-26 20:15:00,26.4,21.8,26.66,NW,315,12.0,12.0,83,0.00,,,0.00,WUHU216HW,2013-01-27 01:15:00,
2013-01-26 20:20:00,26.4,21.8,26.66,NW,315,10.0,12.0,83,0.00,,,0.00,WUHU216HW,2013-01-27 01:20:00,
2013-01-26 20:25:00,26.4,21.8,26.66,NW,315,11.1,11.6,83,0.00,,,0.00,WUHU216HW,2013-01-27 01:25:00,
2013-01-26 20:30:00,26.4,21.8,26.66,WNW,293,10.9,17.2,83,0.00,,,0.00,WUHU216HW,2013-01-27 01:30:00,
2013-01-26 20:35:00,26.4,21.8,26.66,NNW,338,13.1,17.2,83,0.00,,,0.00,WUHU216HW,2013-01-27 01:35:00,
2013-01-26 20:40:00,26.4,21.8,26.66,NW,315,10.5,13.1,83,0.00,,,0.00,WUHU216HW,2013-01-27 01:40:00,
2013-01-26 20:45:00,26.4,21.8,26.66,NW,315,9.8,13.1,83,0.00,,,0.00,WUHU216HW,2013-01-27 01:45:00,
2013-01-26 20:50:00,26.4,21.8,26.66,WNW,293,11.6,15.2,83,0.00,,,0.00,WUHU216HW,2013-01-27 01:50:00,
2013-01-26 20:55:00,26.4,22.1,26.66,WNW,293,13.6,15.2,84,0.00,,,0.00,WUHU216HW,2013-01-27 01:55:00,
2013-01-26 21:00:00,26.4,22.1,26.66,NW,315,11.4,13.6,84,0.00,,,0.00,WUHU216HW,2013-01-27 02:00:00,
2013-01-26 21:06:00,26.2,22.0,26.67,West,270,11.4,13.1,84,0.00,,,0.00,WUHU216HW,2013-01-27 02:06:00,
2013-01-26 21:11:00,26.2,22.0,26.66,WNW,293,10.7,15.8,84,0.00,,,0.00,WUHU216HW,2013-01-27 02:11:00,
2013-01-26 21:16:00,26.2,22.0,26.67,NW,315,11.8,15.8,84,0.00,,,0.00,WUHU216HW,2013-01-27 02:16:00,
2013-01-26 21:21:00,26.2,22.0,26.67,WNW,293,8.9,13.4,84,0.00,,,0.00,WUHU216HW,2013-01-27 02:21:00,
2013-01-26 21:26:00,26.2,22.0,26.67,NW,315,11.6,15.6,84,0.00,,,0.00,WUHU216HW,2013-01-27 02:26:00,
2013-01-26 21:31:00,26.2,22.0,26.68,West,270,8.0,15.6,84,0.00,,,0.00,WUHU216HW,2013-01-27 02:31:00,
2013-01-26 21:36:00,26.2,22.0,26.68,WNW,293,14.0,14.0,84,0.00,,,0.00,WUHU216HW,2013-01-27 02:36:00,
2013-01-26 21:41:00,26.2,22.0,26.68,NW,315,5.5,16.5,84,0.00,,,0.00,WUHU216HW,2013-01-27 02:41:00,
2013-01-26 21:46:00,26.2,22.0,26.68,NW,315,10.5,16.5,84,0.00,,,0.00,WUHU216HW,2013-01-27 02:46:00,
2013-01-26 21:51:00,26.2,22.0,26.68,NW,315,6.4,12.3,84,0.00,,,0.00,WUHU216HW,2013-01-27 02:51:00,
2013-01-26 21:56:00,26.2,22.0,26.68,NW,315,8.5,12.0,84,0.00,,,0.00,WUHU216HW,2013-01-27 02:56:00,
2013-01-26 22:01:00,26.2,22.0,26.68,West,270,8.0,9.6,84,0.00,,,0.00,WUHU216HW,2013-01-27 03:01:00,
2013-01-26 22:06:00,26.2,22.0,26.68,West,270,4.6,11.8,84,0.00,,,0.00,WUHU216HW,2013-01-27 03:06:00,
2013-01-26 22:11:00,26.2,22.0,26.69,West,270,4.2,11.8,84,0.00,,,0.00,WUHU216HW,2013-01-27 03:11:00,
2013-01-26 22:16:00,26.2,22.0,26.69,NW,315,6.2,6.4,84,0.00,,,0.00,WUHU216HW,2013-01-27 03:16:00,
2013-01-26 22:21:00,26.2,22.0,26.70,NW,315,7.1,7.6,84,0.00,,,0.00,WUHU216HW,2013-01-27 03:21:00,
2013-01-26 22:26:00,26.0,21.8,26.70,NNW,338,6.9,9.3,84,0.00,,,0.00,WUHU216HW,2013-01-27 03:26:00,
2013-01-26 22:31:00,26.0,21.8,26.70,NW,315,7.6,9.3,84,0.00,,,0.00,WUHU216HW,2013-01-27 03:31:00,
2013-01-26 22:37:00,26.0,22.1,26.70,NNW,338,4.9,7.6,85,0.00,,,0.00,WUHU216HW,2013-01-27 03:37:00,
2013-01-26 22:42:00,25.8,21.9,26.69,WNW,293,6.2,7.6,85,0.00,,,0.00,WUHU216HW,2013-01-27 03:42:00,
2013-01-26 22:47:00,25.8,21.9,26.70,NNW,338,9.1,9.1,85,0.00,,,0.00,WUHU216HW,2013-01-27 03:47:00,
2013-01-26 22:52:00,25.7,21.7,26.69,NW,315,7.6,9.1,85,0.00,,,0.00,WUHU216HW,2013-01-27 03:52:00,
2013-01-26 22:57:00,25.7,21.7,26.70,WNW,293,7.8,11.6,85,0.00,,,0.00,WUHU216HW,2013-01-27 03:57:00,
2013-01-26 23:02:00,25.7,21.7,26.70,NW,315,11.1,11.6,85,0.00,,,0.00,WUHU216HW,2013-01-27 04:02:00,
2013-01-26 23:07:00,25.7,21.7,26.70,NW,315,6.9,11.1,85,0.00,,,0.00,WUHU216HW,2013-01-27 04:07:00,
2013-01-26 23:12:00,25.7,21.7,26.70,WNW,293,5.8,9.6,85,0.00,,,0.00,WUHU216HW,2013-01-27 04:12:00,
2013-01-26 23:17:00,25.5,21.6,26.71,NW,315,6.9,8.5,85,0.00,,,0.00,WUHU216HW,2013-01-27 04:17:00,
2013-01-26 23:22:00,25.5,21.6,26.70,WNW,293,6.4,8.5,85,0.00,,,0.00,WUHU216HW,2013-01-27 04:22:00,
2013-01-26 23:27:00,25.5,21.6,26.70,NW,315,6.4,8.0,85,0.00,,,0.00,WUHU216HW,2013-01-27 04:27:00,
2013-01-26 23:32:00,25.5,21.6,26.70,WNW,293,7.3,7.8,85,0.00,,,0.00,WUHU216HW,2013-01-27 04:32:00,
2013-01-26 23:37:00,25.5,21.6,26.70,WNW,293,8.0,10.0,85,0.00,,,0.00,WUHU216HW,2013-01-27 04:37:00,
2013-01-26 23:42:00,25.5,21.6,26.70,WNW,293,6.4,10.0,85,0.00,,,0.00,WUHU216HW,2013-01-27 04:42:00,
2013-01-26 23:47:00,25.5,21.6,26.71,NW,315,6.9,8.5,85,0.00,,,0.00,WUHU216HW,2013-01-27 04:47:00,
2013-01-26 23:53:00,25.5,21.6,26.71,WNW,293,8.2,8.5,85,0.00,,,0.00,WUHU216HW,2013-01-27 04:53:00,
2013-01-26 23:58:00,25.5,21.8,26.71,NNW,338,6.4,8.2,86,0.00,,,0.00,WUHU216HW,2013-01-27 04:58:00,